Time;durP1;ratioP1;P1;durP2;ratioP2;P2;SDS_P1;SDS_P2;PMS_P1;PMS_P2;Temp;Humidity;BMP_temperature;BMP_pressure;BME280_temperature;BME280_humidity;BME280_pressure;Samples;Min_cycle;Max_cycle;Signal;HPM_P1;HPM_P2
2021/05/14 00:01:37;;;;;;;1999.90;999.90;;;13.10;99.90;;;;;;5052518;28;20162;-44
2021/05/14 00:04:04;;;;;;;1999.90;999.90;;;13.10;99.90;;;;;;5052246;28;20576;-43
2021/05/14 00:06:31;;;;;;;1999.90;999.90;;;13.10;99.90;;;;;;5052675;28;20576;-43
2021/05/14 00:08:57;;;;;;;1999.90;999.90;;;13.10;99.90;;;;;;5052292;28;20213;-43
2021/05/14 00:11:24;;;;;;;1999.90;999.90;;;13.10;99.90;;;;;;5052595;28;20272;-42
2021/05/14 00:13:53;;;;;;;1999.90;999.90;;;13.00;99.90;;;;;;5052321;28;20681;-49
2021/05/14 00:16:21;;;;;;;1999.90;999.90;;;13.00;99.90;;;;;;5052267;28;20175;-42
2021/05/14 00:18:48;;;;;;;1999.90;999.90;;;13.00;99.90;;;;;;5052209;28;20644;-42
2021/05/14 00:21:15;;;;;;;1999.90;999.90;;;13.00;99.90;;;;;;5052178;28;20189;-42
2021/05/14 00:23:42;;;;;;;1999.90;999.90;;;12.90;99.90;;;;;;5051994;28;20205;-43
2021/05/14 00:26:08;;;;;;;1999.90;999.90;;;12.90;99.90;;;;;;5052128;28;20252;-43
2021/05/14 00:28:35;;;;;;;1999.90;999.90;;;12.80;99.90;;;;;;5052101;28;20217;-42
2021/05/14 00:31:02;;;;;;;1999.90;999.90;;;12.80;99.90;;;;;;5052272;28;20562;-43
2021/05/14 00:33:29;;;;;;;1999.90;999.90;;;12.90;99.90;;;;;;5052222;28;20576;-46
2021/05/14 00:35:56;;;;;;;1999.90;999.90;;;12.80;99.90;;;;;;5052207;28;20252;-44
2021/05/14 00:38:22;;;;;;;1999.90;999.90;;;12.80;99.90;;;;;;5052172;28;20639;-43
2021/05/14 00:40:49;;;;;;;1999.90;999.90;;;12.80;99.90;;;;;;5052243;28;20165;-44
2021/05/14 00:43:16;;;;;;;1999.90;999.90;;;12.80;99.90;;;;;;5052082;28;20227;-43
2021/05/14 00:45:43;;;;;;;1999.90;999.90;;;12.80;99.90;;;;;;5052240;28;20205;-43
2021/05/14 00:48:10;;;;;;;1999.90;999.90;;;12.90;99.90;;;;;;5052273;28;20166;-47
2021/05/14 00:50:36;;;;;;;1999.90;999.90;;;12.90;99.90;;;;;;5054948;28;20219;-43
2021/05/14 00:53:03;;;;;;;1999.90;999.90;;;13.00;99.90;;;;;;5055679;28;20236;-44
2021/05/14 00:55:30;;;;;;;1999.90;999.90;;;13.00;99.90;;;;;;5055635;28;20173;-43
2021/05/14 00:57:57;;;;;;;1999.90;999.90;;;13.00;99.90;;;;;;5055528;28;20699;-48
2021/05/14 01:00:24;;;;;;;1999.90;999.90;;;13.10;99.90;;;;;;5055407;28;20646;-44
2021/05/14 01:02:52;;;;;;;1999.90;999.90;;;13.10;99.90;;;;;;5055320;28;20170;-46
2021/05/14 01:05:24;;;;;;;1999.90;999.90;;;13.10;99.90;;;;;;5055453;28;20632;-43
2021/05/14 01:07:51;;;;;;;1999.90;999.90;;;13.00;99.90;;;;;;5055167;28;20240;-44
2021/05/14 01:10:19;;;;;;;1999.90;999.90;;;13.00;99.90;;;;;;5055117;28;20248;-44
2021/05/14 01:12:46;;;;;;;1999.90;999.90;;;12.90;99.90;;;;;;5055096;28;20165;-43
2021/05/14 01:15:13;;;;;;;1999.90;999.90;;;12.90;99.90;;;;;;5055070;28;20169;-44
2021/05/14 01:17:40;;;;;;;1999.90;999.90;;;12.80;99.90;;;;;;5055027;28;20171;-42
2021/05/14 01:20:07;;;;;;;1999.90;999.90;;;12.80;99.90;;;;;;5054926;28;20558;-43
2021/05/14 01:22:34;;;;;;;1999.90;999.90;;;12.80;99.90;;;;;;5055012;28;20165;-44
2021/05/14 01:25:01;;;;;;;1999.90;999.90;;;12.80;99.90;;;;;;5054861;28;20294;-43
2021/05/14 01:27:27;;;;;;;1999.90;999.90;;;12.80;99.90;;;;;;5054659;28;20516;-43
2021/05/14 01:29:54;;;;;;;1999.90;999.90;;;12.80;99.90;;;;;;5054836;28;20173;-43
2021/05/14 01:32:21;;;;;;;1999.90;999.90;;;12.80;99.90;;;;;;5054824;28;20700;-43
2021/05/14 01:34:48;;;;;;;1999.90;999.90;;;12.80;99.90;;;;;;5054727;28;20165;-44
2021/05/14 01:37:15;;;;;;;1999.90;999.90;;;12.80;99.90;;;;;;5054848;28;20181;-45
2021/05/14 01:39:42;;;;;;;1999.90;999.90;;;12.80;99.90;;;;;;5054628;28;20164;-44
2021/05/14 01:42:09;;;;;;;1999.90;999.90;;;12.80;99.90;;;;;;5054645;28;20170;-44
2021/05/14 01:44:36;;;;;;;1999.90;999.90;;;12.70;99.90;;;;;;5054367;28;20220;-43
2021/05/14 01:47:03;;;;;;;1999.90;999.90;;;12.80;99.90;;;;;;5054450;28;20172;-43
2021/05/14 01:49:29;;;;;;;1999.90;999.90;;;12.80;99.90;;;;;;5054510;28;20160;-44
2021/05/14 01:51:56;;;;;;;1999.90;999.90;;;12.80;99.90;;;;;;5054452;28;20667;-44
2021/05/14 01:54:23;;;;;;;1999.90;999.90;;;12.90;99.90;;;;;;5054347;28;20176;-44
2021/05/14 01:56:51;;;;;;;1999.90;999.90;;;12.90;99.90;;;;;;5054279;28;20655;-43
2021/05/14 01:59:18;;;;;;;1999.90;999.90;;;12.90;99.90;;;;;;5054387;28;20248;-42
2021/05/14 02:01:45;;;;;;;1999.90;999.90;;;13.00;99.90;;;;;;5054103;28;20176;-42
2021/05/14 02:04:12;;;;;;;1999.90;999.90;;;13.00;99.90;;;;;;5054086;28;20197;-42
2021/05/14 02:06:39;;;;;;;1999.90;999.90;;;13.00;99.90;;;;;;5054088;28;20169;-42
2021/05/14 02:09:06;;;;;;;1999.90;999.90;;;13.10;99.90;;;;;;5054089;28;20628;-42
2021/05/14 02:11:33;;;;;;;1999.90;999.90;;;13.00;99.90;;;;;;5053937;28;20523;-42
2021/05/14 02:14:01;;;;;;;1999.90;999.90;;;13.00;99.90;;;;;;5053895;28;20181;-42
2021/05/14 02:16:27;;;;;;;1999.90;999.90;;;13.00;99.90;;;;;;5053957;28;20173;-42
2021/05/14 02:18:54;;;;;;;1999.90;999.90;;;12.90;99.90;;;;;;5053890;28;20561;-42
2021/05/14 02:21:21;;;;;;;1999.90;999.90;;;12.90;99.90;;;;;;5053851;28;20173;-42
2021/05/14 02:23:48;;;;;;;1999.90;999.90;;;12.90;99.90;;;;;;5053968;28;20201;-47
2021/05/14 02:26:14;;;;;;;1999.90;999.90;;;12.90;99.90;;;;;;5053846;28;20264;-42
2021/05/14 02:28:41;;;;;;;1999.90;999.90;;;12.90;99.90;;;;;;5053638;28;20220;-42
2021/05/14 02:31:08;;;;;;;1999.90;999.90;;;12.80;99.90;;;;;;5053779;28;20169;-42
2021/05/14 02:33:35;;;;;;;1999.90;999.90;;;12.80;99.90;;;;;;5053691;28;20169;-44
2021/05/14 02:36:02;;;;;;;1999.90;999.90;;;12.80;99.90;;;;;;5053645;28;20188;-43
2021/05/14 02:38:29;;;;;;;1999.90;999.90;;;12.80;99.90;;;;;;5053593;28;20168;-42
2021/05/14 02:40:56;;;;;;;1999.90;999.90;;;12.80;99.90;;;;;;5053477;28;20176;-46
2021/05/14 02:43:22;;;;;;;1999.90;999.90;;;12.90;99.90;;;;;;5053559;28;20216;-44
2021/05/14 02:45:49;;;;;;;1999.90;999.90;;;12.90;99.90;;;;;;5053630;28;20205;-47
2021/05/14 02:48:20;;;;;;;1999.90;999.90;;;12.90;99.90;;;;;;5053511;28;20256;-42
2021/05/14 02:50:47;;;;;;;1999.90;999.90;;;12.90;99.90;;;;;;5053361;28;20177;-41
2021/05/14 02:53:14;;;;;;;1999.90;999.90;;;12.90;99.90;;;;;;5053369;28;20786;-42
2021/05/14 02:55:40;;;;;;;1999.90;999.90;;;13.00;99.90;;;;;;5053293;28;20170;-43
2021/05/14 02:58:07;;;;;;;1999.90;999.90;;;13.00;99.90;;;;;;5053335;28;20169;-42
2021/05/14 03:00:34;;;;;;;1999.90;999.90;;;13.00;99.90;;;;;;5053232;28;20188;-43
2021/05/14 03:03:01;;;;;;;1999.90;999.90;;;13.00;99.90;;;;;;5053247;28;20536;-41
2021/05/14 03:05:28;;;;;;;1999.90;999.90;;;13.00;99.90;;;;;;5053195;28;20169;-43
2021/05/14 03:07:54;;;;;;;1999.90;999.90;;;12.90;99.90;;;;;;5053234;28;20570;-42
2021/05/14 03:10:21;;;;;;;1999.90;999.90;;;12.90;99.90;;;;;;5053266;28;20173;-41
2021/05/14 03:12:48;;;;;;;1999.90;999.90;;;12.80;99.90;;;;;;5052449;28;20260;-41
2021/05/14 03:15:15;;;;;;;1999.90;999.90;;;12.80;99.90;;;;;;5052946;28;20176;-42
2021/05/14 03:17:42;;;;;;;1999.90;999.90;;;12.80;99.90;;;;;;5053013;28;20533;-41
2021/05/14 03:20:10;;;;;;;1999.90;999.90;;;12.80;99.90;;;;;;5052881;28;20173;-44
2021/05/14 03:22:37;;;;;;;1999.90;999.90;;;12.80;99.90;;;;;;5053216;28;20529;-42
2021/05/14 03:25:06;;;;;;;1999.90;999.90;;;12.90;99.90;;;;;;5052846;28;20240;-42
2021/05/14 03:27:32;;;;;;;1999.90;999.90;;;12.90;99.90;;;;;;5052732;28;20303;-43
2021/05/14 03:30:00;;;;;;;1999.90;999.90;;;13.00;99.90;;;;;;5052735;28;20264;-43
2021/05/14 03:32:27;;;;;;;1999.90;999.90;;;13.00;99.90;;;;;;5052697;28;20217;-44
2021/05/14 03:34:53;;;;;;;1999.90;999.90;;;13.00;99.90;;;;;;5052851;28;20169;-46
2021/05/14 03:37:20;;;;;;;1999.90;999.90;;;13.00;99.90;;;;;;5052810;28;20174;-42
2021/05/14 03:39:50;;;;;;;1999.90;999.90;;;13.00;99.90;;;;;;5052766;28;20161;-46
2021/05/14 03:42:23;;;;;;;1999.90;999.90;;;13.00;99.90;;;;;;5052723;28;20234;-43
2021/05/14 03:44:50;;;;;;;1999.90;999.90;;;13.00;99.90;;;;;;5052603;28;20205;-45
2021/05/14 03:47:17;;;;;;;1999.90;999.90;;;13.00;99.90;;;;;;5052664;28;20169;-44
2021/05/14 03:49:45;;;;;;;1999.90;999.90;;;13.10;99.90;;;;;;5052681;28;20181;-43
2021/05/14 03:52:13;;;;;;;1999.90;999.90;;;13.10;99.90;;;;;;5052662;28;20169;-42
2021/05/14 03:54:41;;;;;;;1999.90;999.90;;;13.10;99.90;;;;;;5052559;28;20176;-44
2021/05/14 03:57:08;;;;;;;1999.90;999.90;;;13.10;99.90;;;;;;5052517;28;20251;-43
2021/05/14 03:59:37;;;;;;;1999.90;999.90;;;13.10;99.90;;;;;;5052592;28;20549;-42
2021/05/14 04:02:04;;;;;;;1999.90;999.90;;;13.10;99.90;;;;;;5052473;28;20276;-42
2021/05/14 04:04:32;;;;;;;1999.90;999.90;;;13.00;99.90;;;;;;5052438;28;20199;-42
2021/05/14 04:07:00;;;;;;;1999.90;999.90;;;13.10;99.90;;;;;;5052577;28;20648;-42
2021/05/14 04:09:30;;;;;;;1999.90;999.90;;;13.10;99.90;;;;;;5052414;28;20248;-44
2021/05/14 04:12:15;;;;;;;1999.90;999.90;;;13.00;99.90;;;;;;5052368;28;20197;-42
2021/05/14 04:14:42;;;;;;;1999.90;999.90;;;13.00;99.90;;;;;;5052362;28;20188;-43
2021/05/14 04:17:09;;;;;;;1999.90;999.90;;;13.00;99.90;;;;;;5052322;28;20173;-44
2021/05/14 04:19:36;;;;;;;1999.90;999.90;;;13.00;99.90;;;;;;5052258;28;20224;-46
2021/05/14 04:22:05;;;;;;;1999.90;999.90;;;13.00;99.90;;;;;;5052258;28;20177;-44
2021/05/14 04:24:31;;;;;;;1999.90;999.90;;;13.00;99.90;;;;;;5055149;28;20213;-42
2021/05/14 04:26:58;;;;;;;1999.90;999.90;;;13.00;99.90;;;;;;5056297;28;20275;-41
2021/05/14 04:29:26;;;;;;;1999.90;999.90;;;13.00;99.90;;;;;;5055767;28;20221;-42
2021/05/14 04:31:53;;;;;;;1999.90;999.90;;;13.00;99.90;;;;;;5055999;28;20173;-42
2021/05/14 04:34:21;;;;;;;1999.90;999.90;;;13.00;99.90;;;;;;5055903;28;20255;-42
2021/05/14 04:36:48;;;;;;;1999.90;999.90;;;13.00;99.90;;;;;;5055931;28;20169;-42
2021/05/14 04:39:15;;;;;;;1999.90;999.90;;;13.00;99.90;;;;;;5055810;28;20169;-42
2021/05/14 04:41:42;;;;;;;1999.90;999.90;;;13.00;99.90;;;;;;5055706;28;20176;-42
2021/05/14 04:44:09;;;;;;;1999.90;999.90;;;12.90;99.90;;;;;;5055620;28;20659;-42
2021/05/14 04:46:36;;;;;;;1999.90;999.90;;;12.90;99.90;;;;;;5055501;28;20231;-43
2021/05/14 04:49:03;;;;;;;1999.90;999.90;;;12.90;99.90;;;;;;5055617;28;20227;-43
2021/05/14 04:51:30;;;;;;;1999.90;999.90;;;12.90;99.90;;;;;;5055819;28;20169;-43
2021/05/14 04:53:58;;;;;;;1999.90;999.90;;;12.80;99.90;;;;;;5055534;28;20267;-42
2021/05/14 04:56:25;;;;;;;1999.90;999.90;;;12.80;99.90;;;;;;5055536;28;20168;-43
2021/05/14 04:58:52;;;;;;;1999.90;999.90;;;12.80;99.90;;;;;;5055448;28;20169;-42
2021/05/14 05:01:19;;;;;;;1999.90;999.90;;;12.90;99.90;;;;;;5055456;28;20161;-42
2021/05/14 05:03:53;;;;;;;1999.90;999.90;;;12.90;99.90;;;;;;5055314;28;20670;-42
2021/05/14 05:06:21;;;;;;;1999.90;999.90;;;12.90;99.90;;;;;;5055222;28;20172;-46
2021/05/14 05:08:48;;;;;;;1999.90;999.90;;;12.90;99.90;;;;;;5055220;28;20165;-41
2021/05/14 05:11:15;;;;;;;1999.90;999.90;;;12.90;99.90;;;;;;5055218;28;20169;-42
2021/05/14 05:13:42;;;;;;;1999.90;999.90;;;12.90;99.90;;;;;;5055158;28;20176;-44
2021/05/14 05:16:09;;;;;;;1999.90;999.90;;;12.90;99.90;;;;;;5055191;28;20248;-42
2021/05/14 05:18:37;;;;;;;1999.90;999.90;;;12.80;99.90;;;;;;5054908;28;20168;-43
2021/05/14 05:21:04;;;;;;;1999.90;999.90;;;12.80;99.90;;;;;;5054958;28;20208;-42
2021/05/14 05:23:30;;;;;;;1999.90;999.90;;;12.70;99.90;;;;;;5054890;28;20278;-42
2021/05/14 05:25:57;;;;;;;1999.90;999.90;;;12.60;99.90;;;;;;5054945;28;20177;-44
2021/05/14 05:28:26;;;;;;;1999.90;999.90;;;12.60;99.90;;;;;;5054703;28;20224;-44
2021/05/14 05:30:54;;;;;;;1999.90;999.90;;;12.60;99.90;;;;;;5054897;28;20169;-42
2021/05/14 05:33:20;;;;;;;1999.90;999.90;;;12.50;99.90;;;;;;5054794;28;20173;-45
2021/05/14 05:35:47;;;;;;;1999.90;999.90;;;12.50;99.90;;;;;;5053880;28;20177;-45
2021/05/14 05:38:21;;;;;;;1999.90;999.90;;;12.60;99.90;;;;;;5054674;28;20204;-46
2021/05/14 05:40:51;;;;;;;1999.90;999.90;;;12.60;99.90;;;;;;5054573;28;20213;-47
2021/05/14 05:43:18;;;;;;;1999.90;999.90;;;12.60;99.90;;;;;;5054250;28;20169;-42
2021/05/14 05:45:46;;;;;;;1999.90;999.90;;;12.70;99.90;;;;;;5054441;28;20204;-42
2021/05/14 05:48:13;;;;;;;1999.90;999.90;;;12.70;99.90;;;;;;5054336;28;20249;-45
2021/05/14 05:50:40;;;;;;;1999.90;999.90;;;12.70;99.90;;;;;;5054188;28;20234;-47
2021/05/14 05:53:11;;;;;;;1999.90;999.90;;;12.70;99.90;;;;;;5054373;28;20709;-44
2021/05/14 05:55:38;;;;;;;1999.90;999.90;;;12.70;99.90;;;;;;5054306;28;20161;-46
2021/05/14 05:58:10;;;;;;;1999.90;999.90;;;12.70;99.90;;;;;;5054125;28;20618;-47
2021/05/14 06:00:38;;;;;;;1999.90;999.90;;;12.70;99.90;;;;;;5054198;28;20162;-45
2021/05/14 06:03:07;;;;;;;1999.90;999.90;;;12.80;99.90;;;;;;5054038;28;20708;-50
2021/05/14 06:05:34;;;;;;;1999.90;999.90;;;13.10;99.90;;;;;;5053884;28;20204;-51
2021/05/14 06:08:01;;;;;;;1999.90;999.90;;;13.20;99.90;;;;;;5053769;28;20589;-53
2021/05/14 06:10:29;;;;;;;1999.90;999.90;;;13.30;99.90;;;;;;5053684;28;20169;-48
2021/05/14 06:12:56;;;;;;;1999.90;999.90;;;13.50;99.90;;;;;;5054135;28;20207;-47
2021/05/14 06:15:23;;;;;;;1999.90;999.90;;;13.70;99.90;;;;;;5053823;28;20587;-51
2021/05/14 06:17:50;;;;;;;1999.90;999.90;;;13.90;99.90;;;;;;5053905;28;20161;-48
2021/05/14 06:20:20;;;;;;;1999.90;999.90;;;14.10;99.90;;;;;;5051255;28;20181;-56
2021/05/14 06:22:47;;;;;;;1999.90;999.90;;;14.30;99.90;;;;;;5053108;28;20230;-47
2021/05/14 06:25:14;;;;;;;1999.90;999.90;;;14.40;99.90;;;;;;5053207;28;20224;-45
2021/05/14 06:27:41;;;;;;;1999.90;999.90;;;14.40;99.90;;;;;;5053034;28;20205;-46
2021/05/14 06:30:08;;;;;;;1999.90;999.90;;;14.50;99.90;;;;;;5053242;28;20219;-46
2021/05/14 06:32:35;;;;;;;1999.90;999.90;;;14.60;99.90;;;;;;5053268;28;20523;-48
2021/05/14 06:35:02;;;;;;;1999.90;999.90;;;14.70;99.90;;;;;;5052782;28;20169;-45
2021/05/14 06:37:31;;;;;;;1999.90;999.90;;;14.90;99.90;;;;;;5053156;28;20176;-46
2021/05/14 06:39:58;;;;;;;1999.90;999.90;;;15.00;99.90;;;;;;5052634;28;20176;-46
2021/05/14 06:42:24;;;;;;;1999.90;999.90;;;15.40;99.90;;;;;;5052996;28;20200;-40
2021/05/14 06:44:53;;;;;;;1999.90;999.90;;;15.80;99.90;;;;;;5053182;28;20246;-47
2021/05/14 06:47:20;;;;;;;1999.90;999.90;;;16.10;99.90;;;;;;5052147;28;20170;-48
2021/05/14 06:49:47;;;;;;;1999.90;999.90;;;16.10;99.90;;;;;;5053050;28;20205;-58
2021/05/14 06:52:14;;;;;;;1999.90;999.90;;;16.30;99.90;;;;;;5053097;28;20172;-59
2021/05/14 06:54:40;;;;;;;1999.90;999.90;;;16.50;99.90;;;;;;5051767;28;20202;-61
2021/05/14 06:57:07;;;;;;;1999.90;999.90;;;16.80;99.90;;;;;;5053204;28;20248;-43
2021/05/14 06:59:34;;;;;;;1999.90;999.90;;;16.90;99.90;;;;;;5052904;28;20188;-58
2021/05/14 07:02:00;;;;;;;1999.90;999.90;;;16.80;99.90;;;;;;5052925;28;20164;-52
2021/05/14 07:04:27;;;;;;;1999.90;999.90;;;16.90;99.90;;;;;;5052504;28;20214;-50
2021/05/14 07:06:54;;;;;;;1999.90;999.90;;;16.80;99.40;;;;;;5052765;28;20532;-49
2021/05/14 07:09:21;;;;;;;1999.90;999.90;;;16.80;99.70;;;;;;5052928;28;20195;-51
2021/05/14 07:11:47;;;;;;;1999.90;999.90;;;16.80;99.50;;;;;;5052845;28;20601;-49
2021/05/14 07:14:14;;;;;;;1999.90;999.90;;;16.70;98.90;;;;;;5052851;28;20176;-51
2021/05/14 07:16:43;;;;;;;1999.90;999.90;;;16.60;99.20;;;;;;5052722;28;20170;-51
2021/05/14 07:19:13;;;;;;;1999.90;999.90;;;16.70;99.40;;;;;;5052932;28;20255;-49
2021/05/14 07:21:43;;;;;;;1999.90;999.90;;;16.70;99.80;;;;;;5052752;28;20166;-46
2021/05/14 07:24:10;;;;;;;1999.90;999.90;;;16.80;99.40;;;;;;5052505;28;20204;-50
2021/05/14 07:26:37;;;;;;;1999.90;999.90;;;16.90;98.50;;;;;;5052223;28;20195;-48
2021/05/14 07:29:06;;;;;;;1999.90;999.90;;;17.00;98.20;;;;;;5052412;28;20703;-49
2021/05/14 07:31:33;;;;;;;1999.90;999.90;;;17.10;97.50;;;;;;5052494;28;20169;-52
2021/05/14 07:34:00;;;;;;;1999.90;999.90;;;17.60;96.80;;;;;;5052556;28;20169;-50
2021/05/14 07:36:27;;;;;;;1999.90;999.90;;;17.80;93.90;;;;;;5052189;28;20165;-52
2021/05/14 07:38:54;;;;;;;1999.90;999.90;;;17.80;94.30;;;;;;5052429;28;20169;-48
2021/05/14 07:41:22;;;;;;;1999.90;999.90;;;17.90;95.40;;;;;;5052643;28;20635;-58
2021/05/14 07:43:48;;;;;;;1999.90;999.90;;;18.00;93.90;;;;;;5052336;28;20235;-58
2021/05/14 07:46:15;;;;;;;1999.90;999.90;;;18.00;93.30;;;;;;5051989;28;20169;-53
2021/05/14 07:48:42;;;;;;;1999.90;999.90;;;18.20;93.40;;;;;;5052340;28;20172;-47
2021/05/14 07:51:09;;;;;;;1999.90;999.90;;;18.30;93.30;;;;;;5052146;28;20161;-53
2021/05/14 07:53:36;;;;;;;1999.90;999.90;;;18.50;93.30;;;;;;5052073;28;20211;-50
2021/05/14 07:56:03;;;;;;;1999.90;999.90;;;18.60;92.10;;;;;;5052264;28;20168;-52
2021/05/14 07:58:30;;;;;;;1999.90;999.90;;;18.70;92.50;;;;;;5053634;28;20646;-55
2021/05/14 08:00:57;;;;;;;1999.90;999.90;;;18.80;91.90;;;;;;5055874;28;20632;-59
2021/05/14 08:03:23;;;;;;;1999.90;999.90;;;19.00;90.70;;;;;;5056172;28;20165;-58
2021/05/14 08:05:50;;;;;;;1999.90;999.90;;;19.20;89.40;;;;;;5056283;28;20177;-57
2021/05/14 08:08:22;;;;;;;1999.90;999.90;;;19.30;87.70;;;;;;5056099;28;20169;-59
2021/05/14 08:10:49;;;;;;;1999.90;999.90;;;19.40;87.60;;;;;;5056023;28;20167;-57
2021/05/14 08:13:16;;;;;;;1999.90;999.90;;;19.50;88.80;;;;;;5055943;28;20165;-58
2021/05/14 08:15:45;;;;;;;1999.90;999.90;;;19.60;85.50;;;;;;5055967;28;20214;-60
2021/05/14 08:18:12;;;;;;;1999.90;999.90;;;19.60;85.20;;;;;;5055806;28;20521;-59
2021/05/14 08:20:42;;;;;;;1999.90;999.90;;;19.70;85.50;;;;;;5055899;28;20169;-59
2021/05/14 08:23:09;;;;;;;1999.90;999.90;;;20.00;83.60;;;;;;5055293;28;20169;-59
2021/05/14 08:25:36;;;;;;;1999.90;999.90;;;20.20;82.80;;;;;;5055472;28;20185;-56
2021/05/14 08:28:03;;;;;;;1999.90;999.90;;;20.50;84.50;;;;;;5055372;28;20216;-48
2021/05/14 08:30:30;;;;;;;1999.90;999.90;;;20.80;83.80;;;;;;5055388;28;20598;-44
2021/05/14 08:32:57;;;;;;;1999.90;999.90;;;21.30;82.70;;;;;;5055567;28;20600;-49
2021/05/14 08:35:24;;;;;;;1999.90;999.90;;;21.50;78.40;;;;;;5055368;28;20175;-50
2021/05/14 08:37:52;;;;;;;1999.90;999.90;;;21.50;78.60;;;;;;5055760;28;20234;-46
2021/05/14 08:40:19;;;;;;;1999.90;999.90;;;21.50;78.10;;;;;;5055760;28;20184;-47
2021/05/14 08:42:45;;;;;;;1999.90;999.90;;;21.80;77.00;;;;;;5055566;28;20177;-49
2021/05/14 08:45:14;;;;;;;1999.90;999.90;;;22.00;77.50;;;;;;5054010;28;20215;-53
2021/05/14 08:47:42;;;;;;;1999.90;999.90;;;22.40;72.70;;;;;;5055026;28;20166;-58
2021/05/14 08:50:11;;;;;;;1999.90;999.90;;;22.70;72.00;;;;;;5055174;28;20173;-45
2021/05/14 08:52:40;;;;;;;1999.90;999.90;;;23.10;67.90;;;;;;5054076;28;20177;-43
2021/05/14 08:55:09;;;;;;;1999.90;999.90;;;23.20;63.70;;;;;;5053539;28;20232;-48
2021/05/14 08:57:35;;;;;;;1999.90;999.90;;;23.30;51.10;;;;;;5054594;28;20181;-44
2021/05/14 09:00:05;;;;;;;1999.90;999.90;;;23.50;48.90;;;;;;5054337;28;20514;-50
2021/05/14 09:02:36;;;;;;;1999.90;999.90;;;23.60;49.90;;;;;;5055276;28;20161;-46
2021/05/14 09:05:24;;;;;;;1999.90;999.90;;;23.70;47.90;;;;;;5054933;28;20201;-44
2021/05/14 09:07:53;;;;;;;1999.90;999.90;;;23.80;47.10;;;;;;5055184;28;20161;-46
2021/05/14 09:10:20;;;;;;;1999.90;999.90;;;23.90;46.40;;;;;;5054126;28;20196;-47
2021/05/14 09:12:47;;;;;;;1999.90;999.90;;;23.90;46.50;;;;;;5055120;28;20505;-49
2021/05/14 09:15:32;;;;;;;1999.90;999.90;;;24.20;45.60;;;;;;5054918;28;20180;-49
2021/05/14 09:18:18;;;;;;;1999.90;999.90;;;24.40;47.70;;;;;;5054056;28;20264;-58
2021/05/14 09:20:53;;;;;;;1999.90;999.90;;;24.50;46.20;;;;;;5054882;28;20165;-54
2021/05/14 09:23:19;;;;;;;1999.90;999.90;;;24.60;43.90;;;;;;5054693;28;20169;-50
2021/05/14 09:25:53;;;;;;;1999.90;999.90;;;24.80;44.30;;;;;;5054844;28;20250;-50
2021/05/14 09:28:35;;;;;;;1999.90;999.90;;;24.90;46.00;;;;;;5054467;28;20232;-46
2021/05/14 09:31:05;;;;;;;1999.90;999.90;;;25.20;45.40;;;;;;5054460;28;20226;-43
2021/05/14 09:33:33;;;;;;;1999.90;999.90;;;25.30;43.40;;;;;;5054496;28;20173;-45
2021/05/14 09:36:01;;;;;;;1999.90;999.90;;;25.40;42.50;;;;;;5054515;28;20360;-46
2021/05/14 09:38:37;;;;;;;1999.90;999.90;;;25.50;43.50;;;;;;5054365;28;20629;-43
2021/05/14 09:41:04;;;;;;;1999.90;999.90;;;25.40;42.30;;;;;;5054429;28;20519;-47
2021/05/14 09:43:31;;;;;;;1999.90;999.90;;;25.40;42.30;;;;;;5054111;28;20189;-47
2021/05/14 09:45:58;;;;;;;1999.90;999.90;;;25.30;41.80;;;;;;5054374;28;20303;-50
2021/05/14 09:48:27;;;;;;;1999.90;999.90;;;25.20;42.30;;;;;;5054213;28;20162;-46
2021/05/14 09:50:58;;;;;;;1999.90;999.90;;;25.30;41.30;;;;;;5054464;28;20265;-43
2021/05/14 09:53:25;;;;;;;1999.90;999.90;;;25.40;42.40;;;;;;5054339;28;20169;-44
2021/05/14 09:55:59;;;;;;;1999.90;999.90;;;25.50;41.50;;;;;;5054159;28;20509;-44
2021/05/14 09:58:29;;;;;;;1999.90;999.90;;;25.60;41.50;;;;;;5054024;28;20234;-43
2021/05/14 10:00:55;;;;;;;1999.90;999.90;;;25.70;42.10;;;;;;5054142;28;20165;-46
2021/05/14 10:03:30;;;;;;;1999.90;999.90;;;25.80;41.70;;;;;;5053556;28;20696;-46
2021/05/14 10:06:03;;;;;;;1999.90;999.90;;;25.90;41.10;;;;;;5053784;28;20177;-47
2021/05/14 10:08:33;;;;;;;1999.90;999.90;;;26.10;42.20;;;;;;5053873;28;20165;-47
2021/05/14 10:11:03;;;;;;;1999.90;999.90;;;26.20;40.50;;;;;;5053627;28;20206;-50
2021/05/14 10:13:31;;;;;;;1999.90;999.90;;;26.30;40.90;;;;;;5053664;28;20537;-54
2021/05/14 10:16:03;;;;;;;1999.90;999.90;;;26.30;36.30;;;;;;5053781;28;20184;-52
2021/05/14 10:18:30;;;;;;;1999.90;999.90;;;26.30;36.30;;;;;;5053782;28;20165;-48
2021/05/14 10:20:58;;;;;;;1999.90;999.90;;;26.30;35.80;;;;;;5053271;28;20176;-49
2021/05/14 10:23:31;;;;;;;1999.90;999.90;;;26.30;34.30;;;;;;5053339;28;20215;-49
2021/05/14 10:26:06;;;;;;;1999.90;999.90;;;26.30;34.40;;;;;;5053927;28;20179;-52
2021/05/14 10:28:40;;;;;;;1999.90;999.90;;;26.20;34.10;;;;;;5053569;28;20216;-52
2021/05/14 10:31:08;;;;;;;1999.90;999.90;;;26.20;34.00;;;;;;5053628;28;20224;-50
2021/05/14 10:33:47;;;;;;;1999.90;999.90;;;26.20;34.70;;;;;;5053588;28;20188;-51
2021/05/14 10:36:24;;;;;;;1999.90;999.90;;;26.20;34.10;;;;;;5053372;28;20170;-53
2021/05/14 10:39:11;;;;;;;1999.90;999.90;;;26.20;35.10;;;;;;5053154;28;20165;-49
2021/05/14 10:41:49;;;;;;;1999.90;999.90;;;25.90;34.90;;;;;;5053160;28;20216;-53
2021/05/14 10:44:16;;;;;;;1999.90;999.90;;;25.80;35.50;;;;;;5051701;28;20642;-49
2021/05/14 10:46:44;;;;;;;1999.90;999.90;;;25.80;35.80;;;;;;5052921;28;20165;-49
2021/05/14 10:49:13;;;;;;;1999.90;999.90;;;25.70;35.60;;;;;;5053105;28;20216;-49
2021/05/14 10:51:46;;;;;;;1999.90;999.90;;;25.70;36.30;;;;;;5052698;28;20230;-46
2021/05/14 10:54:40;;;;;;;1999.90;999.90;;;25.60;36.30;;;;;;5052715;28;20177;-53
2021/05/14 10:57:34;;;;;;;1999.90;999.90;;;25.70;36.20;;;;;;5052983;28;20663;-49
2021/05/14 11:00:24;;;;;;;1999.90;999.90;;;25.80;36.20;;;;;;5052860;28;20169;-56
2021/05/14 11:03:13;;;;;;;1999.90;999.90;;;25.80;35.50;;;;;;5052762;28;20629;-53
2021/05/14 11:05:47;;;;;;;1999.90;999.90;;;25.80;35.10;;;;;;5052802;28;20246;-50
2021/05/14 11:08:35;;;;;;;1999.90;999.90;;;25.80;34.10;;;;;;5052782;28;20172;-49
2021/05/14 11:11:08;;;;;;;1999.90;999.90;;;25.80;35.00;;;;;;5052541;28;20268;-54
2021/05/14 11:13:48;;;;;;;1999.90;999.90;;;25.80;33.90;;;;;;5052560;28;20616;-51
2021/05/14 11:16:40;;;;;;;1999.90;999.90;;;25.90;33.50;;;;;;5052396;28;20177;-53
2021/05/14 11:19:13;;;;;;;1999.90;999.90;;;25.80;33.60;;;;;;5052376;28;20169;-50
2021/05/14 11:22:00;;;;;;;1999.90;999.90;;;25.80;33.80;;;;;;5052787;28;20170;-60
2021/05/14 11:24:32;;;;;;;1999.90;999.90;;;25.90;33.30;;;;;;5052422;28;20589;-49
2021/05/14 11:27:05;;;;;;;1999.90;999.90;;;25.80;32.10;;;;;;5052448;28;20632;-51
2021/05/14 11:29:37;;;;;;;1999.90;999.90;;;25.70;32.50;;;;;;5052537;28;20221;-50
2021/05/14 11:32:29;;;;;;;1999.90;999.90;;;25.60;33.10;;;;;;5052780;28;20157;-50
2021/05/14 11:35:11;;;;;;;1999.90;999.90;;;25.50;33.50;;;;;;5052372;28;20160;-50
2021/05/14 11:37:41;;;;;;;1999.90;999.90;;;25.50;32.80;;;;;;5052664;28;20161;-48
2021/05/14 11:40:09;;;;;;;1999.90;999.90;;;25.40;31.80;;;;;;5052359;28;20170;-46
2021/05/14 11:42:53;;;;;;;1999.90;999.90;;;25.30;32.30;;;;;;5052393;28;20647;-48
2021/05/14 11:45:25;;;;;;;1999.90;999.90;;;25.20;32.20;;;;;;5052585;28;20204;-56
2021/05/14 11:48:00;;;;;;;1999.90;999.90;;;25.30;33.50;;;;;;5052404;28;20196;-57
2021/05/14 11:50:30;;;;;;;1999.90;999.90;;;25.30;32.40;;;;;;5051864;28;20186;-49
2021/05/14 11:52:59;;;;;;;1999.90;999.90;;;25.20;32.80;;;;;;5052258;28;20192;-63
2021/05/14 11:55:27;;;;;;;1999.90;999.90;;;25.30;32.70;;;;;;5051772;28;20172;-62
2021/05/14 11:57:55;;;;;;;1999.90;999.90;;;25.30;32.10;;;;;;5052054;28;20640;-60
2021/05/14 12:00:31;;;;;;;1999.90;999.90;;;25.30;32.20;;;;;;5052173;28;20248;-62
2021/05/14 12:03:00;;;;;;;1999.90;999.90;;;25.40;32.30;;;;;;5052611;28;20612;-62
2021/05/14 12:05:28;;;;;;;1999.90;999.90;;;25.20;31.80;;;;;;5052271;28;20209;-62
2021/05/14 12:08:11;;;;;;;1999.90;999.90;;;25.20;32.80;;;;;;5051843;28;20177;-49